Time;durP1;ratioP1;P1;durP2;ratioP2;P2;SDS_P1;SDS_P2;PMS_P1;PMS_P2;Temp;Humidity;BMP_temperature;BMP_pressure;BME280_temperature;BME280_humidity;BME280_pressure;Samples;Min_cycle;Max_cycle;Signal;HPM_P1;HPM_P2
2023/11/23 00:01:35;;;;;;;10.70;5.63;;;1.30;78.90;;;3.41;56.46;98736.19;5005743;28;20038;-61
2023/11/23 00:04:03;;;;;;;9.77;6.33;;;1.30;79.60;;;3.44;56.43;98736.84;5013232;28;20297;-61
2023/11/23 00:06:30;;;;;;;10.07;6.47;;;1.40;79.40;;;3.43;56.40;98723.78;5013402;28;20113;-61
2023/11/23 00:08:58;;;;;;;13.20;8.83;;;1.40;78.90;;;3.42;56.73;98722.94;5013349;28;20046;-61
2023/11/23 00:11:26;;;;;;;9.37;6.43;;;1.30;80.00;;;3.42;56.56;98712.41;5013566;28;20514;-61
2023/11/23 00:13:53;;;;;;;10.10;6.83;;;1.30;80.10;;;3.44;56.62;98710.53;5013177;28;20050;-61
2023/11/23 00:16:21;;;;;;;9.43;6.70;;;1.30;80.10;;;3.43;56.83;98719.38;5013245;28;20050;-61
2023/11/23 00:18:48;;;;;;;12.43;6.97;;;1.40;79.80;;;3.42;56.83;98720.31;5013037;28;20061;-61
2023/11/23 00:21:16;;;;;;;9.57;5.90;;;1.30;80.00;;;3.44;56.93;98730.75;5013140;28;20057;-61
2023/11/23 00:23:44;;;;;;;10.73;6.60;;;1.40;79.90;;;3.46;56.94;98728.88;5012527;28;20521;-62
2023/11/23 00:26:13;;;;;;;11.87;6.63;;;1.40;80.00;;;3.51;57.07;98732.09;5012693;28;20109;-61
2023/11/23 00:28:47;;;;;;;12.40;6.87;;;1.50;80.00;;;3.53;57.00;98727.59;5012024;28;20068;-61
2023/11/23 00:31:15;;;;;;;10.70;6.00;;;1.50;79.80;;;3.58;56.85;98722.88;5012907;28;20045;-61
2023/11/23 00:33:44;;;;;;;8.97;6.23;;;1.60;79.30;;;3.60;56.92;98713.09;5012779;28;20181;-61
2023/11/23 00:36:15;;;;;;;10.60;6.90;;;1.60;79.40;;;3.65;56.69;98720.75;5011575;28;20522;-61
2023/11/23 00:38:42;;;;;;;9.37;6.23;;;1.60;79.20;;;3.70;56.69;98721.28;5011717;28;20042;-61
2023/11/23 00:41:10;;;;;;;11.70;6.60;;;1.70;79.20;;;3.72;56.96;98720.28;5011970;28;20042;-61
2023/11/23 00:43:38;;;;;;;10.50;6.30;;;1.70;79.20;;;3.76;56.79;98720.91;5004309;28;20041;-61
2023/11/23 00:46:06;;;;;;;10.80;5.90;;;1.80;78.70;;;3.77;57.06;98721.78;5012694;28;20083;-62
2023/11/23 00:48:34;;;;;;;10.17;6.73;;;1.80;78.60;;;3.75;56.81;98709.53;5011473;28;20057;-61
2023/11/23 00:51:02;;;;;;;11.70;6.83;;;1.70;79.00;;;3.77;57.11;98711.25;5012554;28;20042;-61
2023/11/23 00:53:31;;;;;;;12.53;6.87;;;1.70;78.70;;;3.75;57.07;98706.91;4994604;28;20053;-61
2023/11/23 00:55:59;;;;;;;12.90;6.77;;;1.70;79.20;;;3.77;57.42;98700.72;5011378;28;20523;-61
2023/11/23 00:58:27;;;;;;;11.70;7.40;;;1.70;79.00;;;3.77;57.12;98700.72;4995051;28;20054;-62
2023/11/23 01:00:54;;;;;;;8.43;5.73;;;1.70;79.00;;;3.77;57.18;98700.72;5011207;28;20053;-61
2023/11/23 01:03:24;;;;;;;11.13;6.20;;;1.70;78.80;;;3.74;56.68;98707.88;5011777;28;20049;-61
2023/11/23 01:05:52;;;;;;;10.73;7.47;;;1.70;79.10;;;3.75;56.91;98712.19;5011296;28;20045;-61
2023/11/23 01:08:20;;;;;;;12.60;6.77;;;1.70;79.50;;;3.66;56.92;98709.25;5012002;28;20049;-61
2023/11/23 01:10:47;;;;;;;12.87;7.47;;;1.60;79.50;;;3.65;57.33;98713.69;5011196;28;20045;-61
2023/11/23 01:13:15;;;;;;;12.57;7.00;;;1.60;80.00;;;3.66;57.20;98710.09;4994569;28;20053;-61
2023/11/23 01:15:43;;;;;;;9.20;6.27;;;1.60;80.00;;;3.65;57.05;98712.84;5012289;28;20038;-61
2023/11/23 01:18:11;;;;;;;12.03;6.90;;;1.60;79.80;;;3.58;57.13;98722.03;4994990;28;20049;-61
2023/11/23 01:20:39;;;;;;;8.90;6.17;;;1.50;80.00;;;3.54;57.47;98713.47;5011009;28;20042;-61
2023/11/23 01:23:06;;;;;;;10.67;6.70;;;1.50;80.10;;;3.53;57.42;98717.06;5011575;28;20118;-62
2023/11/23 01:25:35;;;;;;;9.30;6.20;;;1.50;80.30;;;3.55;57.71;98728.34;5010903;28;20427;-61
2023/11/23 01:28:02;;;;;;;11.43;7.37;;;1.50;80.70;;;3.57;57.12;98717.69;5011980;28;20049;-61
2023/11/23 01:30:30;;;;;;;10.50;5.90;;;1.50;80.80;;;3.57;57.84;98705.41;5010838;28;20046;-61
2023/11/23 01:32:58;;;;;;;12.07;6.60;;;1.50;80.60;;;3.57;57.69;98700.13;5012074;28;20042;-61
2023/11/23 01:35:26;;;;;;;11.33;6.50;;;1.50;80.60;;;3.54;57.89;98702.94;5010348;28;20057;-61
2023/11/23 01:37:53;;;;;;;9.43;6.20;;;1.50;81.00;;;3.53;57.47;98698.63;5011882;28;20158;-61
2023/11/23 01:40:21;;;;;;;11.07;6.40;;;1.50;80.80;;;3.51;57.63;98701.34;5011962;28;20042;-61
2023/11/23 01:42:48;;;;;;;11.73;7.50;;;1.50;80.80;;;3.52;57.71;98696.91;5010181;28;20053;-61
2023/11/23 01:45:16;;;;;;;10.33;7.57;;;1.50;80.70;;;3.50;57.68;98686.47;4993873;28;20060;-61
2023/11/23 01:47:46;;;;;;;11.33;7.60;;;1.50;81.10;;;3.44;57.57;98675.47;4986011;28;20049;-61
2023/11/23 01:50:16;;;;;;;11.00;6.77;;;1.40;80.90;;;3.39;58.02;98674.88;5011383;28;20038;-61
2023/11/23 01:52:43;;;;;;;9.17;6.73;;;1.30;81.50;;;3.35;57.93;98667.19;5010493;28;20038;-61
2023/11/23 01:55:12;;;;;;;10.40;7.37;;;1.30;81.60;;;3.33;57.96;98676.94;5011282;28;20050;-61
2023/11/23 01:57:41;;;;;;;10.50;7.03;;;1.30;82.10;;;3.32;58.15;98674.41;5010423;28;20050;-61
2023/11/23 02:00:10;;;;;;;11.63;6.73;;;1.30;82.30;;;3.30;57.75;98658.69;4994442;28;20431;-61
2023/11/23 02:02:43;;;;;;;10.07;6.97;;;1.30;82.10;;;3.25;58.35;98663.38;5010109;28;20424;-61
2023/11/23 02:05:11;;;;;;;12.67;7.30;;;1.20;82.50;;;3.23;58.37;98654.72;5007813;28;20049;-61
2023/11/23 02:07:39;;;;;;;11.17;6.43;;;1.20;82.70;;;3.23;58.27;98636.31;5009877;28;20050;-61
2023/11/23 02:10:08;;;;;;;9.17;6.00;;;1.20;82.70;;;3.19;58.62;98642.69;5010079;28;20045;-61
2023/11/23 02:12:35;;;;;;;10.10;6.17;;;1.30;83.00;;;3.19;58.96;98642.69;5010262;28;20455;-61
2023/11/23 02:15:05;;;;;;;12.30;7.23;;;1.20;82.50;;;3.24;58.46;98638.00;5009925;28;20050;-61
2023/11/23 02:17:34;;;;;;;10.53;7.23;;;1.40;83.40;;;3.29;58.83;98637.72;5010201;28;20054;-61
2023/11/23 02:20:03;;;;;;;10.07;6.50;;;1.40;81.70;;;3.24;58.80;98639.78;5011263;28;20038;-61
2023/11/23 02:22:31;;;;;;;11.97;6.97;;;1.40;82.30;;;3.22;58.56;98639.88;5001808;28;20125;-61
2023/11/23 02:24:59;;;;;;;12.57;6.50;;;1.40;80.90;;;3.23;58.52;98649.47;5010891;28;20515;-61
2023/11/23 02:27:26;;;;;;;11.37;7.40;;;1.40;81.00;;;3.26;58.89;98630.03;4993831;28;20056;-61
2023/11/23 02:29:54;;;;;;;11.67;6.13;;;1.50;81.40;;;3.25;58.55;98633.59;4993751;28;20042;-61
2023/11/23 02:32:25;;;;;;;10.50;6.03;;;1.50;80.60;;;3.26;58.85;98624.75;5010026;28;20058;-61
2023/11/23 02:34:53;;;;;;;9.73;6.63;;;1.40;80.40;;;3.28;58.28;98626.34;5011033;28;20038;-61
2023/11/23 02:37:20;;;;;;;9.63;6.37;;;1.40;80.80;;;3.26;58.74;98616.88;5009693;28;20049;-61
2023/11/23 02:39:48;;;;;;;9.47;5.90;;;1.30;81.30;;;3.26;58.85;98616.88;5018326;28;20515;-61
2023/11/23 02:42:15;;;;;;;13.00;6.97;;;1.30;81.40;;;3.21;58.89;98619.75;5010008;28;20057;-61
2023/11/23 02:44:43;;;;;;;10.87;5.77;;;1.30;81.20;;;3.21;58.86;98630.28;5009383;28;20054;-61
2023/11/23 02:47:11;;;;;;;13.50;6.93;;;1.30;81.20;;;3.27;58.60;98632.53;5012521;28;20052;-61
2023/11/23 02:49:39;;;;;;;9.73;5.63;;;1.30;81.70;;;3.31;58.16;98627.94;5013859;28;20077;-61
2023/11/23 02:52:07;;;;;;;8.83;5.73;;;1.40;81.10;;;3.34;58.23;98631.25;5013958;28;20050;-62
2023/11/23 02:54:35;;;;;;;9.10;5.97;;;1.40;80.80;;;3.36;57.86;98628.53;5013510;28;20125;-61
2023/11/23 02:57:02;;;;;;;12.93;7.00;;;1.40;81.10;;;3.37;57.79;98632.00;5014090;28;20057;-61
2023/11/23 02:59:30;;;;;;;10.37;6.77;;;1.30;81.10;;;3.29;58.25;98633.31;5014375;28;20460;-61
2023/11/23 03:01:58;;;;;;;11.93;6.60;;;1.30;81.20;;;3.31;57.80;98638.47;5014651;28;20042;-61
2023/11/23 03:04:27;;;;;;;9.43;6.37;;;1.30;81.00;;;3.32;57.96;98627.03;5014254;28;20101;-61
2023/11/23 03:06:55;;;;;;;9.97;6.07;;;1.30;80.70;;;3.32;58.00;98632.28;5014425;28;20030;-61
2023/11/23 03:09:23;;;;;;;11.73;6.17;;;1.30;81.10;;;3.32;57.63;98635.75;5012646;28;20053;-61
2023/11/23 03:11:51;;;;;;;10.53;7.30;;;1.30;80.80;;;3.26;58.25;98645.81;5013492;28;20057;-61
2023/11/23 03:14:19;;;;;;;9.37;5.30;;;1.30;81.10;;;3.21;58.12;98639.97;5012864;28;20042;-61
2023/11/23 03:16:46;;;;;;;12.50;6.47;;;1.20;81.50;;;3.21;58.00;98645.22;5012996;28;20050;-61
2023/11/23 03:19:14;;;;;;;11.47;6.40;;;1.20;81.50;;;3.20;58.20;98647.03;5013372;28;20491;-61
2023/11/23 03:21:42;;;;;;;12.30;6.53;;;1.20;81.30;;;3.22;57.78;98639.88;5013264;28;20050;-61
2023/11/23 03:24:10;;;;;;;10.73;6.67;;;1.20;81.80;;;3.25;58.30;98639.69;5012827;28;20418;-61
2023/11/23 03:26:39;;;;;;;9.57;5.97;;;1.30;81.60;;;3.24;58.10;98632.75;5014299;28;20065;-61
2023/11/23 03:29:06;;;;;;;9.87;5.70;;;1.20;81.20;;;3.23;58.10;98631.03;5014440;28;20042;-61
2023/11/23 03:31:34;;;;;;;11.43;6.23;;;1.20;81.10;;;3.23;58.21;98630.19;5013093;28;20080;-61
2023/11/23 03:34:02;;;;;;;11.67;6.13;;;1.20;81.20;;;3.22;58.13;98636.38;5013836;28;20041;-61
2023/11/23 03:36:30;;;;;;;10.10;5.87;;;1.20;80.70;;;3.17;57.87;98633.19;5014003;28;20518;-61
2023/11/23 03:38:58;;;;;;;10.20;5.90;;;1.20;81.40;;;3.15;58.16;98647.28;4996768;28;20053;-61
2023/11/23 03:41:25;;;;;;;11.47;5.80;;;1.10;81.30;;;3.15;58.19;98649.91;5013760;28;20049;-61
2023/11/23 03:43:53;;;;;;;8.23;5.37;;;1.10;81.70;;;3.20;57.85;98654.91;5012365;28;20098;-61
2023/11/23 03:46:22;;;;;;;10.37;6.00;;;1.20;81.50;;;3.17;58.08;98643.72;5013284;28;20046;-61
2023/11/23 03:48:49;;;;;;;13.10;6.13;;;1.20;81.40;;;3.11;57.97;98634.41;5012286;28;20538;-61
2023/11/23 03:51:17;;;;;;;10.83;6.57;;;1.10;81.90;;;3.08;58.73;98630.19;5013932;28;20046;-61
2023/11/23 03:53:45;;;;;;;9.63;6.17;;;1.00;81.60;;;3.07;58.47;98628.47;5013326;28;20060;-61
2023/11/23 03:56:15;;;;;;;12.90;7.10;;;1.00;81.90;;;3.08;58.71;98622.28;5013808;28;20054;-61
2023/11/23 03:58:43;;;;;;;9.73;6.10;;;1.10;82.50;;;3.10;58.61;98627.44;5012903;28;20046;-61
2023/11/23 04:01:11;;;;;;;10.13;5.63;;;1.10;82.30;;;3.11;58.77;98613.34;5013434;28;20050;-61
2023/11/23 04:03:44;;;;;;;10.13;6.27;;;1.10;81.70;;;3.09;58.67;98621.34;5013046;28;20113;-61
2023/11/23 04:06:12;;;;;;;;;;;1.10;81.70;;;3.13;58.41;98617.56;5014547;28;20053;-61
2023/11/23 04:08:40;;;;;;;8.10;5.57;;;1.10;81.40;;;3.16;58.44;98619.19;5013248;28;19932;-61
2023/11/23 04:11:10;;;;;;;7.70;5.27;;;1.10;81.80;;;3.20;57.74;98620.72;5012607;28;20064;-61
2023/11/23 04:13:37;;;;;;;9.20;5.33;;;1.20;81.30;;;3.20;58.47;98630.38;5013021;28;20418;-61
2023/11/23 04:16:05;;;;;;;8.93;6.07;;;1.20;80.20;;;3.21;57.81;98619.75;5013437;28;20042;-61
2023/11/23 04:18:33;;;;;;;10.27;6.20;;;1.20;80.60;;;3.22;57.93;98621.47;5013287;28;20038;-61
2023/11/23 04:21:00;;;;;;;8.93;5.70;;;1.20;80.00;;;3.23;57.83;98617.88;5013040;28;20060;-61
2023/11/23 04:23:28;;;;;;;9.10;5.90;;;1.20;79.90;;;3.22;57.98;98615.34;5012912;28;20052;-61
2023/11/23 04:25:55;;;;;;;12.63;6.27;;;1.20;80.40;;;3.20;58.28;98615.44;5013162;28;20042;-61
2023/11/23 04:28:23;;;;;;;9.57;5.73;;;1.20;80.20;;;3.21;57.85;98624.19;5013264;28;20069;-61
2023/11/23 04:30:51;;;;;;;10.30;5.23;;;1.20;80.50;;;3.21;57.96;98621.56;5012966;28;20060;-61
2023/11/23 04:33:18;;;;;;;9.70;5.83;;;1.20;80.60;;;3.22;58.17;98634.63;5012677;28;20056;-61
2023/11/23 04:35:47;;;;;;;10.50;5.93;;;1.20;80.80;;;3.23;57.96;98633.66;5013031;28;20042;-61
2023/11/23 04:38:14;;;;;;;10.33;5.87;;;1.20;80.10;;;3.24;57.48;98629.25;5011890;28;20054;-61
2023/11/23 04:40:42;;;;;;;9.73;5.80;;;1.30;80.60;;;3.25;58.02;98623.91;5012209;28;20050;-61
2023/11/23 04:43:10;;;;;;;10.67;5.83;;;1.30;80.50;;;3.24;57.70;98618.72;5012378;28;20050;-61
2023/11/23 04:45:38;;;;;;;10.13;5.80;;;1.20;80.20;;;3.20;57.50;98620.72;5012712;28;20415;-61
2023/11/23 04:48:06;;;;;;;11.20;6.00;;;1.10;80.30;;;3.14;58.10;98626.31;5012607;28;20052;-61
2023/11/23 04:50:36;;;;;;;10.93;5.77;;;1.10;81.30;;;3.12;58.32;98612.41;5011460;28;20046;-61
2023/11/23 04:53:04;;;;;;;12.97;6.83;;;1.10;81.80;;;3.06;58.15;98608.34;5003705;28;20057;-61
2023/11/23 04:55:32;;;;;;;12.23;6.47;;;1.00;81.80;;;3.04;58.65;98610.22;5012760;28;20050;-62
2023/11/23 04:58:00;;;;;;;12.37;7.23;;;1.10;81.80;;;3.00;58.45;98616.59;5012498;28;20049;-61
2023/11/23 05:00:27;;;;;;;10.47;6.23;;;1.00;82.30;;;2.99;58.55;98614.94;5012487;28;20045;-61
2023/11/23 05:02:55;;;;;;;8.33;5.50;;;1.00;81.80;;;2.92;58.67;98605.69;5012150;28;20518;-61
2023/11/23 05:05:23;;;;;;;11.10;6.50;;;1.00;81.70;;;2.90;58.80;98603.16;5008989;28;20053;-62
2023/11/23 05:07:50;;;;;;;9.37;5.40;;;1.00;81.80;;;2.84;59.09;98602.66;5011511;28;20420;-61
2023/11/23 05:10:19;;;;;;;9.90;5.97;;;0.90;82.30;;;2.83;59.11;98607.09;5010133;28;20046;-61
2023/11/23 05:12:51;;;;;;;8.53;5.73;;;0.90;82.40;;;2.83;59.00;98606.22;5010894;28;20582;-61
2023/11/23 05:15:19;;;;;;;13.47;7.33;;;0.90;82.30;;;2.84;59.00;98594.78;5012259;28;20041;-61
2023/11/23 05:17:47;;;;;;;11.57;6.97;;;1.00;82.80;;;2.84;59.01;98587.72;5012165;28;20057;-62
2023/11/23 05:20:15;;;;;;;11.20;7.07;;;1.00;82.10;;;2.79;59.17;98589.75;5011979;28;20423;-62
2023/11/23 05:22:43;;;;;;;10.53;5.87;;;1.00;82.10;;;2.81;59.09;98595.81;5012347;28;20050;-61
2023/11/23 05:25:11;;;;;;;9.97;6.00;;;1.00;82.40;;;2.86;59.25;98592.91;5011779;28;20072;-60
2023/11/23 05:27:38;;;;;;;7.57;5.17;;;1.00;81.30;;;2.88;59.29;98591.03;5012157;28;20050;-61
2023/11/23 05:30:06;;;;;;;7.13;4.93;;;1.10;81.20;;;2.87;59.16;98590.19;5011937;28;20048;-61
2023/11/23 05:32:34;;;;;;;9.63;5.17;;;1.10;81.30;;;2.90;59.33;98597.03;5011912;28;20046;-61
2023/11/23 05:35:02;;;;;;;8.47;5.77;;;1.10;81.20;;;2.93;58.73;98600.34;5011626;28;20045;-61
2023/11/23 05:37:29;;;;;;;12.30;6.60;;;1.10;81.30;;;2.87;58.52;98608.59;5011630;28;20415;-62
2023/11/23 05:39:57;;;;;;;8.30;5.03;;;1.00;81.40;;;2.88;58.84;98612.91;5011701;28;20050;-61
2023/11/23 05:42:26;;;;;;;10.23;6.17;;;1.00;81.40;;;2.91;58.44;98625.06;5011692;28;20128;-60
2023/11/23 05:44:54;;;;;;;9.87;5.60;;;0.90;81.90;;;2.83;59.00;98625.50;5011428;28;20046;-61
2023/11/23 05:47:22;;;;;;;11.33;5.47;;;0.90;81.60;;;2.82;58.91;98622.94;5010630;28;20062;-62
2023/11/23 05:49:50;;;;;;;8.67;4.93;;;0.90;82.00;;;2.75;58.91;98618.06;5010313;28;20499;-61
2023/11/23 05:52:17;;;;;;;7.60;4.73;;;0.80;81.90;;;2.75;59.02;98617.19;5011589;28;20411;-61
2023/11/23 05:54:45;;;;;;;9.17;5.57;;;0.80;81.70;;;2.79;59.00;98623.13;5011231;28;20049;-61
2023/11/23 05:57:14;;;;;;;7.63;4.17;;;0.90;81.80;;;2.81;58.96;98618.63;5011608;28;20045;-61
2023/11/23 05:59:41;;;;;;;7.70;5.50;;;0.90;81.70;;;2.81;58.78;98619.47;5011285;28;20053;-61
2023/11/23 06:02:09;;;;;;;9.83;4.97;;;1.00;81.30;;;2.82;58.83;98618.53;5011400;28;20046;-61
2023/11/23 06:04:37;;;;;;;6.23;4.40;;;1.00;80.50;;;2.82;58.72;98617.69;5011206;28;20053;-61
2023/11/23 06:07:10;;;;;;;6.63;3.90;;;0.90;80.20;;;2.84;58.88;98618.44;5011813;28;20041;-60
2023/11/23 06:09:38;;;;;;;7.33;4.90;;;1.00;80.00;;;2.88;58.58;98622.59;5009589;28;20050;-60
2023/11/23 06:12:06;;;;;;;8.10;4.03;;;1.10;79.40;;;2.90;58.63;98615.47;5011058;28;20495;-61
2023/11/23 06:14:36;;;;;;;9.40;5.57;;;1.10;79.00;;;2.94;58.62;98609.91;5009892;28;20069;-61
2023/11/23 06:17:10;;;;;;;15.00;8.33;;;1.10;79.00;;;2.99;58.50;98609.66;5011464;28;20054;-60
2023/11/23 06:19:38;;;;;;;32.53;16.17;;;1.20;79.50;;;2.94;58.12;98611.72;5011526;28;20045;-60
2023/11/23 06:22:06;;;;;;;27.50;14.47;;;1.20;78.20;;;2.90;58.51;98612.81;5011012;28;20064;-61
2023/11/23 06:24:33;;;;;;;17.50;10.37;;;1.20;77.80;;;2.91;58.34;98614.53;5009478;28;20392;-62
2023/11/23 06:27:01;;;;;;;10.10;6.00;;;1.20;78.30;;;2.98;58.51;98620.28;5011110;28;20045;-61
2023/11/23 06:29:29;;;;;;;6.87;4.57;;;1.20;78.00;;;3.02;58.19;98619.16;5010120;28;20522;-62
2023/11/23 06:31:57;;;;;;;8.20;5.23;;;1.30;77.80;;;3.06;58.01;98618.88;5010107;28;20053;-62
2023/11/23 06:34:28;;;;;;;7.40;5.10;;;1.30;77.40;;;3.10;58.20;98616.91;5010403;28;20050;-62
2023/11/23 06:36:55;;;;;;;6.03;4.13;;;1.30;77.20;;;3.11;58.04;98622.09;5011029;28;20042;-62
2023/11/23 06:39:26;;;;;;;5.53;3.80;;;1.30;76.90;;;3.19;57.81;98620.78;5011071;28;20042;-62
2023/11/23 06:41:54;;;;;;;6.23;3.60;;;1.40;76.10;;;3.22;57.50;98624.09;5010786;28;20049;-65
2023/11/23 06:44:23;;;;;;;7.93;3.80;;;1.40;75.60;;;3.24;57.70;98623.97;5010506;28;20050;-62
2023/11/23 06:46:50;;;;;;;8.07;4.00;;;1.40;76.20;;;3.25;57.75;98617.78;5009810;28;20038;-62
2023/11/23 06:49:18;;;;;;;7.17;4.10;;;1.40;75.80;;;3.23;57.79;98617.03;5009760;28;20041;-62
2023/11/23 06:51:46;;;;;;;6.70;4.10;;;1.40;75.30;;;3.17;57.46;98606.88;5010630;28;20049;-61
2023/11/23 06:54:13;;;;;;;5.20;2.97;;;1.40;76.40;;;3.12;57.41;98615.03;5002604;28;20053;-64
2023/11/23 06:56:41;;;;;;;5.03;3.30;;;1.30;76.30;;;3.18;57.75;98603.28;5010780;28;20041;-65
2023/11/23 06:59:08;;;;;;;5.17;3.73;;;1.40;76.80;;;3.19;57.40;98605.00;5010731;28;20076;-61
2023/11/23 07:01:36;;;;;;;5.63;3.60;;;1.40;75.90;;;3.19;57.57;98605.00;5010762;28;20046;-61
2023/11/23 07:04:04;;;;;;;7.30;3.70;;;1.50;76.10;;;3.23;57.71;98601.25;5010203;28;20042;-62
2023/11/23 07:06:32;;;;;;;6.23;3.83;;;1.50;76.20;;;3.26;57.88;98598.44;5010623;28;20045;-60
2023/11/23 07:08:59;;;;;;;8.13;4.20;;;1.60;76.40;;;3.29;57.78;98587.72;5010553;28;20046;-61
2023/11/23 07:11:27;;;;;;;6.30;3.40;;;1.70;76.50;;;3.23;58.02;98593.34;5010138;28;20053;-62
2023/11/23 07:13:55;;;;;;;5.47;3.23;;;1.70;76.60;;;3.37;57.84;98582.81;5010341;28;20443;-60
2023/11/23 07:16:23;;;;;;;5.83;4.07;;;1.80;76.20;;;3.32;58.53;98579.66;5010637;28;20050;-60
2023/11/23 07:18:51;;;;;;;7.20;4.20;;;1.80;76.20;;;3.35;58.52;98574.19;5010418;28;20045;-60
2023/11/23 07:21:19;;;;;;;5.83;3.10;;;1.90;77.00;;;3.46;58.22;98578.81;5009513;28;20037;-61
2023/11/23 07:23:47;;;;;;;9.03;3.70;;;2.00;76.30;;;3.48;58.07;98590.09;5010317;28;20042;-59
2023/11/23 07:26:15;;;;;;;5.97;3.33;;;2.00;76.80;;;3.49;58.57;98582.09;5010346;28;20057;-60
2023/11/23 07:28:42;;;;;;;5.90;3.80;;;2.00;77.50;;;3.57;58.43;98583.41;5010392;28;20038;-60
2023/11/23 07:31:10;;;;;;;5.23;3.50;;;2.10;77.70;;;3.57;59.18;98583.41;5010383;28;20049;-60
2023/11/23 07:33:38;;;;;;;6.77;4.03;;;2.10;78.00;;;3.61;59.04;98575.22;5011485;28;20042;-60
2023/11/23 07:36:06;;;;;;;5.77;3.47;;;2.20;78.10;;;3.74;59.02;98585.84;5013879;28;20415;-59
2023/11/23 07:38:34;;;;;;;4.70;3.47;;;2.30;78.20;;;3.79;59.21;98591.66;5014255;28;20415;-60
2023/11/23 07:41:02;;;;;;;5.33;3.23;;;2.40;77.70;;;3.80;59.28;98593.38;5012634;28;20041;-59
2023/11/23 07:43:33;;;;;;;7.60;3.90;;;2.40;77.90;;;3.73;59.28;98600.81;5013082;28;20053;-60
2023/11/23 07:46:00;;;;;;;5.67;3.57;;;2.40;78.00;;;3.82;59.33;98595.91;5013440;28;20034;-59
2023/11/23 07:48:29;;;;;;;5.20;3.30;;;2.50;78.20;;;3.88;59.33;98591.09;5012919;28;20042;-59
2023/11/23 07:50:57;;;;;;;5.07;2.90;;;2.50;78.20;;;4.00;59.30;98599.19;5013605;28;20478;-59
2023/11/23 07:53:28;;;;;;;6.20;3.27;;;2.60;78.30;;;4.00;59.46;98583.38;5012415;28;20419;-59
2023/11/23 07:55:57;;;;;;;5.10;3.10;;;2.60;78.30;;;4.16;59.27;98589.34;5013274;28;20045;-61
2023/11/23 07:58:24;;;;;;;5.50;3.40;;;2.70;78.20;;;4.18;59.21;98592.75;5013605;28;20046;-60
2023/11/23 08:00:52;;;;;;;5.43;2.97;;;2.80;77.70;;;4.30;59.19;98589.34;5013315;28;20038;-60
2023/11/23 08:03:21;;;;;;;5.67;3.13;;;2.90;78.10;;;4.33;59.36;98585.66;5010437;28;20522;-60
2023/11/23 08:05:48;;;;;;;5.97;3.10;;;2.90;78.10;;;4.38;59.47;98591.47;5011031;28;20362;-59
2023/11/23 08:08:16;;;;;;;4.73;3.27;;;3.00;79.40;;;4.47;59.49;98582.09;5011687;28;20068;-59
2023/11/23 08:10:44;;;;;;;8.07;3.97;;;3.10;78.40;;;4.59;59.61;98580.47;5013516;28;20057;-60
2023/11/23 08:13:14;;;;;;;7.20;3.93;;;3.20;78.30;;;4.62;58.93;98570.56;5013147;28;20053;-62
2023/11/23 08:15:42;;;;;;;5.00;3.10;;;3.20;77.80;;;4.66;59.08;98589.66;5013456;28;20407;-61
2023/11/23 08:18:10;;;;;;;4.90;2.90;;;3.20;78.20;;;4.67;59.19;98596.63;5013183;28;20053;-61
2023/11/23 08:20:37;;;;;;;4.93;2.70;;;3.20;78.10;;;4.66;59.51;98598.41;5012067;28;20057;-61
2023/11/23 08:23:06;;;;;;;5.03;3.47;;;3.20;78.50;;;4.73;58.62;98605.00;5013118;28;20117;-61
2023/11/23 08:25:34;;;;;;;6.00;3.17;;;3.20;78.80;;;4.80;59.46;98604.59;5013399;28;20053;-61
2023/11/23 08:28:02;;;;;;;7.57;2.83;;;3.30;78.70;;;4.82;58.94;98597.41;5012904;28;20053;-61
2023/11/23 08:30:29;;;;;;;7.17;3.40;;;3.40;79.20;;;4.88;59.91;98603.13;5012818;28;20042;-61
2023/11/23 08:32:59;;;;;;;6.97;4.13;;;3.50;79.40;;;4.89;59.83;98598.69;5013041;28;20038;-61
2023/11/23 08:35:28;;;;;;;10.13;4.50;;;3.50;79.30;;;4.98;59.37;98590.16;5012690;28;20514;-61
2023/11/23 08:37:55;;;;;;;5.47;3.10;;;3.60;79.40;;;5.11;59.71;98584.91;5012832;28;20430;-61
2023/11/23 08:40:23;;;;;;;5.33;3.30;;;3.70;79.10;;;5.17;59.99;98578.38;5012894;28;20299;-61
2023/11/23 08:42:51;;;;;;;3.43;2.67;;;3.70;79.50;;;5.23;59.76;98573.50;5011341;28;20054;-61
2023/11/23 08:45:18;;;;;;;5.87;3.50;;;3.80;79.40;;;5.27;59.78;98571.50;5012194;28;20045;-61
2023/11/23 08:47:46;;;;;;;4.90;3.17;;;3.80;79.40;;;5.34;59.73;98572.78;5012743;28;20042;-61
2023/11/23 08:50:14;;;;;;;6.87;3.53;;;3.90;80.30;;;5.41;59.34;98583.75;5012415;28;20393;-61
2023/11/23 08:52:41;;;;;;;4.40;3.10;;;3.90;80.40;;;5.51;59.41;98569.81;5011807;28;20415;-61
2023/11/23 08:55:09;;;;;;;6.87;3.40;;;4.00;80.30;;;5.57;59.97;98570.34;5012078;28;20054;-61
2023/11/23 08:57:37;;;;;;;4.80;3.60;;;4.10;80.30;;;5.55;60.06;98564.34;5012286;28;20448;-62
2023/11/23 09:00:12;;;;;;;7.07;3.00;;;4.10;80.60;;;5.50;59.76;98573.38;5011015;28;20058;-61
2023/11/23 09:02:39;;;;;;;4.63;3.10;;;4.10;81.00;;;5.61;59.69;98566.53;5011393;28;20450;-62
2023/11/23 09:05:11;;;;;;;5.47;3.20;;;4.20;81.30;;;5.68;60.37;98559.84;5011470;28;20046;-62
2023/11/23 09:07:38;;;;;;;4.30;2.60;;;4.20;81.50;;;5.77;60.66;98561.84;4997167;28;20530;-61
2023/11/23 09:10:07;;;;;;;4.17;2.87;;;4.30;81.70;;;5.79;60.33;98570.50;5006583;28;20067;-62
2023/11/23 09:12:36;;;;;;;6.17;3.30;;;4.30;82.00;;;5.79;60.19;98572.31;5007080;28;20045;-61
2023/11/23 09:15:07;;;;;;;6.17;3.00;;;4.40;82.50;;;5.87;60.22;98562.91;5006964;28;20503;-61
2023/11/23 09:17:36;;;;;;;4.47;2.60;;;4.40;82.50;;;5.89;60.78;98560.13;5007219;28;20049;-61
2023/11/23 09:20:08;;;;;;;3.03;2.10;;;4.50;83.40;;;5.97;61.03;98560.47;4986981;28;20442;-61
2023/11/23 09:22:35;;;;;;;6.40;2.43;;;4.50;83.10;;;6.04;60.72;98564.34;5005064;28;20038;-61
2023/11/23 09:25:04;;;;;;;6.50;2.90;;;4.50;83.20;;;6.10;60.44;98555.97;5004847;28;20042;-61
2023/11/23 09:27:32;;;;;;;5.53;2.80;;;4.60;83.00;;;6.15;60.68;98549.53;5007114;28;20046;-61
2023/11/23 09:29:59;;;;;;;4.63;2.67;;;4.60;82.40;;;6.18;60.12;98539.56;5004829;28;20045;-64
2023/11/23 09:32:30;;;;;;;4.70;2.87;;;4.70;82.80;;;6.15;60.24;98542.44;5001842;28;20061;-61
2023/11/23 09:34:58;;;;;;;3.97;2.33;;;4.70;82.10;;;6.14;60.65;98535.44;5004185;28;20041;-60
2023/11/23 09:37:26;;;;;;;4.30;2.80;;;4.60;82.50;;;6.13;60.85;98540.84;5004632;28;20049;-61
2023/11/23 09:39:53;;;;;;;7.03;3.67;;;4.60;82.80;;;6.14;60.58;98530.16;5005090;28;20058;-61
2023/11/23 09:42:23;;;;;;;5.57;2.70;;;4.60;83.20;;;6.17;60.99;98531.75;5006627;28;20060;-61
2023/11/23 09:44:56;;;;;;;6.27;2.37;;;4.70;82.90;;;6.18;60.79;98531.63;4989169;28;20060;-62
2023/11/23 09:47:31;;;;;;;7.15;3.42;;;4.70;82.80;;;6.10;61.32;98524.25;5005381;28;20057;-61
2023/11/23 09:50:00;;;;;;;3.87;2.60;;;4.70;83.00;;;6.21;61.13;98520.84;5006440;28;20174;-62
2023/11/23 09:52:29;;;;;;;5.63;2.80;;;4.80;82.60;;;6.27;61.24;98511.63;5005431;28;20050;-62
2023/11/23 09:54:57;;;;;;;3.60;2.53;;;4.80;83.00;;;6.35;60.70;98513.69;5001975;28;20045;-62
2023/11/23 09:57:25;;;;;;;3.10;2.13;;;4.80;82.80;;;6.37;60.54;98511.78;5002941;28;20454;-62
2023/11/23 09:59:53;;;;;;;4.50;2.57;;;4.90;83.10;;;6.44;60.54;98503.28;5006160;28;20558;-61
2023/11/23 10:02:30;;;;;;;4.83;2.70;;;5.00;82.70;;;6.46;60.40;98506.66;5005233;28;20042;-62
2023/11/23 10:04:59;;;;;;;4.67;3.00;;;5.00;82.20;;;6.49;60.53;98514.38;5000481;28;20053;-62
2023/11/23 10:07:28;;;;;;;3.57;2.63;;;5.00;82.90;;;6.49;60.80;98505.56;4997427;28;20045;-62
2023/11/23 10:09:55;;;;;;;4.27;2.63;;;5.00;82.80;;;6.40;60.63;98499.16;4999787;28;20042;-62
2023/11/23 10:12:25;;;;;;;4.87;2.30;;;4.90;83.50;;;6.48;61.18;98504.72;5001749;28;20052;-62
2023/11/23 10:14:53;;;;;;;4.30;2.57;;;5.00;83.60;;;6.54;61.05;98487.56;5002333;28;20518;-62
2023/11/23 10:17:20;;;;;;;3.63;2.43;;;5.00;83.10;;;6.58;60.73;98483.72;5004285;28;20053;-62
2023/11/23 10:19:49;;;;;;;4.50;2.90;;;5.10;83.90;;;6.64;60.74;98485.06;5006925;28;20514;-62
2023/11/23 10:22:17;;;;;;;5.03;2.83;;;5.20;82.90;;;6.65;60.84;98484.94;5007142;28;20057;-61
2023/11/23 10:24:48;;;;;;;9.00;5.10;;;5.30;82.70;;;6.70;60.85;98474.84;5006761;28;20045;-62
2023/11/23 10:27:19;;;;;;;9.63;6.13;;;5.20;82.40;;;6.76;60.67;98480.63;5006657;28;20160;-62
2023/11/23 10:29:47;;;;;;;4.57;3.03;;;5.30;82.50;;;6.84;61.05;98471.16;5007213;28;20056;-62
2023/11/23 10:32:16;;;;;;;6.33;3.63;;;5.40;82.60;;;6.92;60.67;98475.00;5006845;28;20041;-61
2023/11/23 10:34:44;;;;;;;4.57;2.73;;;5.50;82.20;;;6.86;60.58;98465.72;5006818;28;20037;-62